Time;durP1;ratioP1;P1;durP2;ratioP2;P2;SDS_P1;SDS_P2;PMS_P1;PMS_P2;Temp;Humidity;BMP_temperature;BMP_pressure;BME280_temperature;BME280_humidity;BME280_pressure;Samples;Min_cycle;Max_cycle;Signal;HPM_P1;HPM_P2
2022/01/31 00:00:10;;;;;;;3.70;1.40;;;-0.60;97.00;;;-0.81;64.38;97810.69;174071;28;906;-79
2022/01/31 00:00:17;;;;;;;3.47;1.30;;;-0.60;97.00;;;-0.80;64.45;97813.25;172632;28;1332;-78
2022/01/31 00:00:23;;;;;;;3.77;1.40;;;-0.60;96.90;;;-0.87;64.18;97801.41;173008;28;1393;-78
2022/01/31 00:00:29;;;;;;;4.28;1.50;;;-0.60;96.90;;;-0.81;64.24;97815.97;173386;28;1555;-78
2022/01/31 00:00:35;;;;;;;3.67;1.50;;;-0.70;96.90;;;-0.83;64.08;97813.47;172706;28;1207;-78
2022/01/31 00:00:41;;;;;;;3.38;1.45;;;-0.60;96.90;;;-0.81;64.43;97808.06;173893;28;1306;-79
2022/01/31 00:00:47;;;;;;;3.53;1.48;;;-0.60;96.90;;;-0.86;64.33;97806.59;173854;28;1302;-79
2022/01/31 00:00:54;;;;;;;4.10;1.40;;;-0.60;96.90;;;-0.88;64.38;97803.19;173299;28;1210;-79
2022/01/31 00:01:01;;;;;;;3.57;1.40;;;-0.70;96.80;;;-0.97;64.45;97782.72;173968;28;1235;-78
2022/01/31 00:01:07;;;;;;;4.00;1.63;;;-0.60;96.80;;;-0.84;64.45;97810.94;174112;28;882;-79
2022/01/31 00:01:15;;;;;;;3.47;1.53;;;-0.70;96.80;;;-0.87;64.71;97804.03;172550;28;1287;-79
2022/01/31 00:01:22;;;;;;;3.42;1.52;;;-0.60;96.90;;;-1.13;64.55;97752.19;172603;28;1434;-78
2022/01/31 00:01:28;;;;;;;3.80;1.60;;;-0.60;97.20;;;-0.85;64.75;97796.88;172903;28;1446;-79
2022/01/31 00:01:34;;;;;;;4.05;1.55;;;-0.60;96.90;;;-0.78;64.39;97807.84;173365;28;935;-79
2022/01/31 00:01:40;;;;;;;4.35;1.42;;;-0.60;96.90;;;-0.76;64.88;97821.78;174089;28;1131;-79
2022/01/31 00:01:47;;;;;;;5.20;1.60;;;-0.60;96.90;;;-0.72;64.49;97820.59;173953;28;1231;-79
2022/01/31 00:01:52;;;;;;;4.82;1.48;;;-0.60;96.90;;;-0.72;64.73;97818.81;173995;28;1569;-79
2022/01/31 00:01:59;;;;;;;4.53;1.40;;;-0.60;97.00;;;-0.79;64.91;97806.16;173980;28;1400;-78
2022/01/31 00:02:05;;;;;;;4.30;1.40;;;-0.60;97.00;;;-0.88;64.83;97794.41;174783;28;854;-79
2022/01/31 00:02:13;;;;;;;4.05;1.40;;;-0.60;97.00;;;-0.76;64.98;97821.78;172825;28;839;-79
2022/01/31 00:02:19;;;;;;;3.88;1.50;;;-0.60;97.00;;;-0.83;64.61;97810.81;173260;28;1430;-78
2022/01/31 00:02:26;;;;;;;3.88;1.50;;;-0.60;97.00;;;-0.79;64.88;97819.38;173977;28;1318;-78
2022/01/31 00:02:32;;;;;;;3.78;1.50;;;-0.60;97.00;;;-0.89;64.95;97806.81;173997;28;1437;-79
2022/01/31 00:02:38;;;;;;;4.28;1.63;;;-0.60;97.00;;;-0.87;64.66;97807.53;172691;28;855;-79
2022/01/31 00:02:46;;;;;;;3.40;1.60;;;-0.60;97.00;;;-0.95;64.77;97804.59;172636;28;1481;-77
2022/01/31 00:02:52;;;;;;;3.85;1.75;;;-0.70;97.00;;;-0.91;64.77;97807.84;172579;28;1465;-79
2022/01/31 00:02:58;;;;;;;4.20;1.88;;;-0.70;96.90;;;-0.90;65.31;97805.13;172643;28;1260;-78
2022/01/31 00:03:04;;;;;;;3.92;1.92;;;-0.70;97.00;;;-0.99;65.11;97789.06;172662;28;1335;-78
2022/01/31 00:03:10;;;;;;;3.76;1.92;;;-0.70;97.00;;;-0.92;65.00;97807.00;173351;28;1529;-79
2022/01/31 00:03:16;;;;;;;4.15;1.80;;;-0.70;97.00;;;-1.02;65.01;97800.69;174671;28;1765;-79
2022/01/31 00:03:23;;;;;;;3.47;1.57;;;-0.70;97.00;;;-0.98;65.29;97804.81;173305;28;1576;-79
2022/01/31 00:03:30;;;;;;;3.83;1.47;;;-0.70;97.00;;;-0.90;65.21;97813.06;173326;28;1523;-79
2022/01/31 00:03:36;;;;;;;3.98;1.42;;;-0.70;97.00;;;-0.94;65.20;97816.88;173308;28;1370;-79
2022/01/31 00:03:42;;;;;;;4.35;1.48;;;-0.70;97.00;;;-0.94;64.97;97805.44;173406;28;883;-79
2022/01/31 00:03:48;;;;;;;4.23;1.57;;;-0.70;97.00;;;-1.08;64.91;97795.84;173478;28;891;-79
2022/01/31 00:03:54;;;;;;;4.43;1.50;;;-0.70;97.00;;;-0.98;64.91;97812.72;173270;28;1192;-78
2022/01/31 00:04:00;;;;;;;4.03;1.55;;;-0.70;97.00;;;-1.01;64.86;97805.03;172757;28;887;-78
2022/01/31 00:04:06;;;;;;;4.10;1.42;;;-0.70;97.00;;;-1.35;64.87;97745.78;172681;28;1217;-79
2022/01/31 00:04:11;;;;;;;4.13;1.40;;;-0.70;97.00;;;-0.93;64.69;97810.59;171301;28;1212;-79
2022/01/31 00:04:17;;;;;;;4.28;1.40;;;-0.80;96.90;;;-1.07;64.24;97797.53;173375;28;1247;-79
2022/01/31 00:04:24;;;;;;;4.85;1.58;;;-0.80;96.90;;;-0.94;64.33;97819.50;174084;28;997;-78
2022/01/31 00:04:29;;;;;;;6.03;1.50;;;-0.70;96.90;;;-1.11;64.33;97790.78;172715;28;1290;-78
2022/01/31 00:04:35;;;;;;;6.35;1.52;;;-0.80;96.90;;;-1.00;64.42;97805.88;173311;28;1356;-79
2022/01/31 00:04:42;;;;;;;5.95;1.48;;;-0.80;96.90;;;-1.10;64.45;97786.34;175510;28;1341;-79
2022/01/31 00:04:48;;;;;;;5.20;1.38;;;-0.80;96.80;;;-1.04;64.06;97807.06;173388;28;1388;-79
2022/01/31 00:04:54;;;;;;;6.00;1.35;;;-0.80;96.80;;;-1.02;64.20;97800.69;171275;28;1246;-78
2022/01/31 00:04:59;;;;;;;5.03;1.38;;;-0.80;96.80;;;-0.98;64.39;97815.38;173404;28;986;-79
2022/01/31 00:05:06;;;;;;;4.50;1.30;;;-0.80;96.80;;;-0.98;64.01;97818.00;173365;28;1219;-78
2022/01/31 00:05:13;;;;;;;5.05;1.40;;;-0.80;96.80;;;-1.00;64.45;97812.00;173244;28;1448;-78
2022/01/31 00:05:19;;;;;;;5.22;1.38;;;-0.80;96.80;;;-0.99;64.03;97812.84;172570;28;1454;-79
2022/01/31 00:05:25;;;;;;;4.18;1.38;;;-0.80;96.70;;;-1.07;64.25;97799.31;172628;28;1219;-79
2022/01/31 00:05:31;;;;;;;3.75;1.20;;;-0.80;96.70;;;-0.98;64.16;97806.59;172666;28;1327;-79
2022/01/31 00:05:37;;;;;;;3.13;1.20;;;-0.80;96.70;;;-0.97;64.03;97814.41;173301;28;1350;-78
2022/01/31 00:05:43;;;;;;;2.60;1.20;;;-0.80;96.70;;;-1.33;64.25;97753.59;173456;28;966;-79
2022/01/31 00:05:49;;;;;;;3.20;1.20;;;-0.80;96.70;;;-1.01;64.34;97810.31;172822;28;1670;-78
2022/01/31 00:05:55;;;;;;;2.95;1.15;;;-0.80;96.70;;;-1.05;64.20;97808.84;173317;28;1263;-79
2022/01/31 00:06:03;;;;;;;3.30;1.30;;;-0.80;96.70;;;-1.04;64.14;97802.63;172651;28;1391;-79
2022/01/31 00:06:09;;;;;;;4.52;1.32;;;-0.80;96.70;;;-0.96;64.36;97821.41;172684;28;924;-79
2022/01/31 00:06:15;;;;;;;4.82;1.38;;;-0.80;96.70;;;-0.95;64.32;97817.81;172621;28;1701;-79
2022/01/31 00:06:21;;;;;;;4.32;1.30;;;-0.80;96.70;;;-1.00;64.61;97809.38;174028;28;1223;-78
2022/01/31 00:06:27;;;;;;;4.97;1.40;;;-0.80;96.70;;;-1.33;64.37;97758.88;172894;28;2432;-77
2022/01/31 00:06:33;;;;;;;4.55;1.33;;;-0.80;96.80;;;-1.08;64.87;97789.69;172110;28;986;-79
2022/01/31 00:06:39;;;;;;;3.45;1.42;;;-0.80;96.80;;;-1.03;64.81;97806.91;173332;28;1357;-78
2022/01/31 00:06:48;;;;;;;3.95;1.42;;;-0.80;96.80;;;-0.95;64.39;97816.97;173298;28;1344;-79
2022/01/31 00:06:54;;;;;;;4.74;1.34;;;-0.80;96.90;;;-1.13;64.93;97783.91;171333;28;1371;-79
2022/01/31 00:07:02;;;;;;;5.00;1.30;;;-0.80;96.90;;;-0.88;64.94;97821.69;172759;28;910;-78
2022/01/31 00:07:09;;;;;;;6.20;1.30;;;-0.80;97.00;;;-1.03;64.95;97790.22;173315;28;1780;-78
2022/01/31 00:07:15;;;;;;;6.27;1.30;;;-0.80;97.00;;;-0.95;65.20;97812.53;173385;28;973;-79
2022/01/31 00:07:21;;;;;;;5.13;1.33;;;-0.70;97.00;;;-0.92;65.03;97807.00;172795;28;1025;-79
2022/01/31 00:07:27;;;;;;;5.47;1.30;;;-0.70;97.10;;;-1.00;64.96;97793.50;172628;28;1438;-79
2022/01/31 00:07:33;;;;;;;5.15;1.25;;;-0.70;97.10;;;-0.93;64.58;97809.75;173267;28;1286;-79
2022/01/31 00:07:40;;;;;;;4.43;1.27;;;-0.70;97.10;;;-0.96;64.57;97810.84;173339;28;1348;-79
2022/01/31 00:07:46;;;;;;;4.47;1.23;;;-0.70;97.10;;;-1.04;64.80;97789.41;173933;28;1345;-78
2022/01/31 00:07:52;;;;;;;4.15;1.17;;;-0.70;97.10;;;-1.03;64.79;97799.00;174061;28;1366;-78
2022/01/31 00:07:58;;;;;;;4.60;1.40;;;-0.70;97.10;;;-0.93;64.83;97820.31;173284;28;1476;-79
2022/01/31 00:08:04;;;;;;;4.47;1.58;;;-0.70;97.10;;;-0.88;64.81;97820.84;172647;28;1278;-78
2022/01/31 00:08:10;;;;;;;4.40;1.43;;;-0.70;97.10;;;-0.98;65.37;97796.88;171310;28;1360;-79
2022/01/31 00:08:22;;;;;;;3.80;1.40;;;-0.70;97.10;;;-1.06;64.99;97793.09;173441;28;954;-79
2022/01/31 00:08:27;;;;;;;3.84;1.30;;;-0.70;97.10;;;-0.91;65.07;97807.84;173823;28;1328;-78
2022/01/31 00:08:33;;;;;;;3.42;1.13;;;-0.70;97.10;;;-1.00;64.80;97787.38;173897;28;997;-79
2022/01/31 00:08:40;;;;;;;3.03;1.10;;;-0.70;97.10;;;-0.94;65.07;97808.94;172484;28;1175;-78
2022/01/31 00:08:46;;;;;;;3.30;1.16;;;-0.70;97.10;;;-0.91;64.92;97814.00;171744;28;1418;-79
2022/01/31 00:08:52;;;;;;;3.25;1.30;;;-0.70;97.10;;;-0.96;64.62;97802.91;171756;28;1307;-79
2022/01/31 00:08:58;;;;;;;2.80;1.30;;;-0.70;97.10;;;-0.84;64.74;97821.50;172451;28;1388;-79
2022/01/31 00:09:04;;;;;;;2.65;1.30;;;-0.70;97.10;;;-0.99;64.69;97797.00;173015;28;1256;-79
2022/01/31 00:09:15;;;;;;;2.45;1.40;;;-0.70;97.10;;;-1.02;64.70;97790.13;173272;28;1216;-79
2022/01/31 00:09:22;;;;;;;2.80;1.45;;;-0.70;97.10;;;-0.93;64.67;97804.47;171834;28;1254;-79
2022/01/31 00:09:29;;;;;;;3.10;1.50;;;-0.70;97.10;;;-1.11;64.53;97772.28;171818;28;1324;-79
2022/01/31 00:09:35;;;;;;;3.37;1.43;;;-0.70;97.10;;;-0.91;64.47;97806.06;173303;28;855;-79
2022/01/31 00:09:43;;;;;;;3.47;1.40;;;-0.70;97.00;;;-0.94;64.30;97803.66;173186;28;1294;-79
2022/01/31 00:09:49;;;;;;;2.80;1.21;;;-0.70;97.00;;;-0.97;64.40;97795.06;173714;28;1553;-79
2022/01/31 00:09:56;;;;;;;2.70;1.30;;;-0.70;97.00;;;-0.90;64.66;97813.06;173192;28;1235;-79
2022/01/31 00:10:07;;;;;;;2.92;1.30;;;-0.70;97.00;;;-0.94;64.59;97806.28;172523;28;1374;-79
2022/01/31 00:10:15;;;;;;;3.10;1.35;;;-0.70;97.00;;;-0.91;64.63;97810.50;173949;28;1642;-80
2022/01/31 00:10:28;;;;;;;2.90;1.37;;;-0.70;97.00;;;-1.10;64.84;97773.97;173148;28;1465;-79
2022/01/31 00:10:34;;;;;;;3.14;1.30;;;-0.70;97.00;;;-0.89;64.41;97808.59;173750;28;1415;-78
2022/01/31 00:10:40;;;;;;;2.83;1.30;;;-0.70;97.00;;;-0.86;65.04;97817.16;173302;28;922;-78
2022/01/31 00:10:46;;;;;;;3.65;1.30;;;-0.70;97.10;;;-0.92;64.73;97799.09;172253;28;1471;-79
2022/01/31 00:10:52;;;;;;;3.97;1.20;;;-0.70;97.10;;;-0.99;64.89;97792.56;172481;28;1412;-79
2022/01/31 00:10:58;;;;;;;3.93;1.30;;;-0.70;97.10;;;-0.82;64.73;97819.56;173305;28;919;-79
2022/01/31 00:11:04;;;;;;;4.30;1.30;;;-0.70;97.10;;;-0.89;64.59;97800.69;173287;28;938;-79
2022/01/31 00:11:11;;;;;;;4.70;1.25;;;-0.70;97.10;;;-0.95;64.42;97796.69;173933;28;1277;-79
2022/01/31 00:11:17;;;;;;;3.78;1.16;;;-0.70;97.10;;;-0.90;64.26;97805.13;173420;28;1560;-78
2022/01/31 00:11:23;;;;;;;3.55;1.20;;;-0.70;97.10;;;-0.81;64.20;97818.63;172591;28;1676;-79
2022/01/31 00:11:30;;;;;;;3.28;1.10;;;-0.70;97.10;;;-1.03;64.19;97777.84;173276;28;942;-78
2022/01/31 00:11:42;;;;;;;2.93;1.10;;;-0.70;97.00;;;-0.84;64.08;97813.56;173295;28;1300;-79
2022/01/31 00:12:23;;;;;;;3.45;1.33;;;-0.70;96.90;;;-0.99;63.76;97789.94;171882;28;1184;-79
2022/01/31 00:12:24;;;;;;;2.58;1.14;;;-0.70;97.00;;;-1.21;64.24;97752.75;172532;28;1369;-79
2022/01/31 00:12:33;;;;;;;4.10;1.30;;;-0.70;96.80;;;-0.96;64.16;97797.63;171103;28;1354;-79
2022/01/31 00:13:03;;;;;;;5.10;1.20;;;-0.70;96.80;;;-0.88;64.28;97807.63;171966;28;1018;-79
2022/01/31 00:13:17;;;;;;;4.55;1.26;;;-0.80;96.70;;;-0.96;64.18;97800.25;172467;28;1738;-79
2022/01/31 00:13:35;;;;;;;3.06;1.26;;;-0.80;96.70;;;-0.89;64.11;97806.81;172501;28;1444;-79
2022/01/31 00:13:45;;;;;;;2.97;1.21;;;-0.80;96.70;;;-0.90;64.42;97805.13;173249;28;1402;-79
2022/01/31 00:14:00;;;;;;;3.99;1.16;;;-0.70;96.80;;;-0.92;64.18;97796.44;172577;28;1358;-79
2022/01/31 00:14:15;;;;;;;3.65;1.01;;;-0.70;96.80;;;-0.88;64.30;97792.63;173243;28;1176;-79
2022/01/31 00:14:32;;;;;;;3.05;1.05;;;-0.70;96.90;;;-0.83;64.46;97800.25;172582;28;1195;-79
2022/01/31 00:14:48;;;;;;;2.57;1.10;;;-0.70;96.90;;;-0.87;63.84;97790.84;172663;28;803;-79
2022/01/31 00:15:00;;;;;;;2.62;1.07;;;-0.70;96.90;;;-0.80;64.07;97797.38;171858;28;1327;-79
2022/01/31 00:15:07;;;;;;;3.24;1.02;;;-0.70;96.90;;;-0.81;63.53;97805.41;173232;28;1363;-79
2022/01/31 00:15:13;;;;;;;3.63;0.93;;;-0.70;96.80;;;-0.84;63.80;97805.63;173835;28;1337;-78
2022/01/31 00:15:19;;;;;;;3.42;1.00;;;-0.70;97.10;;;-0.93;63.82;97781.53;173286;28;1321;-79
2022/01/31 00:15:25;;;;;;;4.05;1.15;;;-0.70;96.80;;;-0.91;63.62;97787.56;173886;28;1366;-78
2022/01/31 00:15:37;;;;;;;4.77;1.30;;;-0.70;96.80;;;-0.86;63.75;97805.75;174562;28;1373;-79
2022/01/31 00:15:47;;;;;;;4.01;1.30;;;-0.70;96.70;;;-0.79;64.10;97811.44;173164;28;1423;-79
2022/01/31 00:15:55;;;;;;;3.92;1.29;;;-0.70;96.80;;;-0.89;63.83;97784.81;172537;28;1368;-79
2022/01/31 00:16:02;;;;;;;3.32;1.13;;;-0.70;96.80;;;-0.80;63.93;97801.81;173959;28;944;-79
2022/01/31 00:16:13;;;;;;;2.73;1.20;;;-0.70;96.80;;;-0.92;64.13;97777.94;174051;28;921;-79
2022/01/31 00:16:24;;;;;;;2.64;1.18;;;-0.70;96.80;;;-0.79;64.15;97800.88;173253;28;1210;-79
2022/01/31 00:16:32;;;;;;;2.32;1.17;;;-0.70;96.80;;;-0.80;64.15;97793.88;171969;28;2793;-78
2022/01/31 00:16:38;;;;;;;1.97;1.19;;;-0.60;96.90;;;-1.12;64.09;97744.19;172217;28;1407;-78
2022/01/31 00:16:44;;;;;;;2.23;1.20;;;-0.70;96.90;;;-0.96;64.13;97765.91;171235;28;1227;-79
2022/01/31 00:16:50;;;;;;;2.47;1.23;;;-0.60;96.90;;;-0.75;63.87;97797.91;171749;28;1475;-79
2022/01/31 00:16:56;;;;;;;2.58;1.23;;;-0.70;96.80;;;-0.84;63.87;97788.00;172550;28;1546;-78
2022/01/31 00:17:04;;;;;;;2.96;1.34;;;-0.70;96.80;;;-0.80;63.74;97796.53;172581;28;1033;-79
2022/01/31 00:17:13;;;;;;;2.92;1.30;;;-0.70;96.80;;;-0.86;63.97;97789.88;172179;28;1454;-79
2022/01/31 00:17:19;;;;;;;2.83;1.27;;;-0.70;96.80;;;-0.89;63.82;97780.38;173265;28;1373;-78
2022/01/31 00:17:25;;;;;;;3.30;1.30;;;-0.70;96.70;;;-0.81;63.92;97792.19;172561;28;1223;-78
2022/01/31 00:17:31;;;;;;;3.50;1.20;;;-0.70;96.70;;;-0.80;63.89;97794.75;171308;28;868;-78
2022/01/31 00:17:36;;;;;;;4.15;1.10;;;-0.70;96.70;;;-0.87;63.89;97783.75;173284;28;1180;-79
2022/01/31 00:17:43;;;;;;;4.82;1.10;;;-0.70;96.70;;;-0.82;63.73;97794.00;174623;28;1313;-79
2022/01/31 00:17:49;;;;;;;5.20;1.10;;;-0.70;96.70;;;-0.83;63.57;97802.06;171937;28;868;-78
2022/01/31 00:17:55;;;;;;;5.43;1.10;;;-0.70;96.60;;;-0.81;63.72;97803.63;173278;28;1338;-78
2022/01/31 00:18:01;;;;;;;5.20;1.10;;;-0.70;96.60;;;-0.93;63.47;97783.34;172549;28;1319;-78
2022/01/31 00:18:08;;;;;;;5.00;1.15;;;-0.70;96.60;;;-0.88;63.78;97786.50;172437;28;1405;-79
2022/01/31 00:18:14;;;;;;;4.88;1.10;;;-0.70;96.60;;;-0.82;63.57;97791.34;172348;28;1398;-79
2022/01/31 00:18:20;;;;;;;5.03;1.20;;;-0.70;96.60;;;-0.99;63.76;97770.59;173954;28;1244;-77
2022/01/31 00:18:26;;;;;;;4.17;1.13;;;-0.70;96.60;;;-0.87;63.78;97789.03;173314;28;1395;-79
2022/01/31 00:18:32;;;;;;;4.57;1.35;;;-0.70;96.60;;;-0.88;64.05;97792.63;172540;28;1388;-78
2022/01/31 00:18:37;;;;;;;3.95;1.30;;;-0.70;96.60;;;-0.81;63.61;97800.13;171940;28;955;-78
2022/01/31 00:18:43;;;;;;;3.83;1.33;;;-0.70;96.60;;;-0.87;63.71;97789.03;172675;28;1046;-79
2022/01/31 00:18:49;;;;;;;3.30;1.30;;;-0.70;96.60;;;-0.83;63.63;97794.97;173289;28;1310;-79
2022/01/31 00:18:55;;;;;;;3.70;1.50;;;-0.70;96.60;;;-0.85;63.61;97796.88;173368;28;815;-78
2022/01/31 00:19:01;;;;;;;2.75;1.20;;;-0.70;96.60;;;-1.04;63.99;97765.63;172633;28;971;-79
2022/01/31 00:19:07;;;;;;;2.70;1.33;;;-0.70;96.60;;;-0.87;63.63;97791.69;172551;28;1308;-79
2022/01/31 00:19:13;;;;;;;2.22;1.33;;;-0.70;96.60;;;-0.86;63.83;97796.00;173171;28;1299;-78
2022/01/31 00:19:19;;;;;;;2.10;1.33;;;-0.70;96.60;;;-0.94;63.78;97777.22;173244;28;1090;-78
2022/01/31 00:19:25;;;;;;;2.07;1.30;;;-0.70;96.60;;;-0.89;63.77;97793.59;173923;28;1570;-78
2022/01/31 00:19:32;;;;;;;2.12;1.38;;;-0.70;96.60;;;-1.02;64.10;97768.97;172546;28;1321;-79
2022/01/31 00:19:41;;;;;;;3.34;1.40;;;-0.70;96.60;;;-1.07;64.00;97759.69;173379;28;902;-79
2022/01/31 00:19:47;;;;;;;4.12;1.48;;;-0.70;96.60;;;-1.22;63.79;97737.84;172667;28;1042;-79
2022/01/31 00:19:52;;;;;;;4.88;1.52;;;-0.70;96.60;;;-1.16;63.86;97739.22;174723;28;811;-78
2022/01/31 00:19:59;;;;;;;4.85;1.48;;;-0.70;96.60;;;-0.95;64.29;97778.19;173337;28;943;-78
2022/01/31 00:20:05;;;;;;;4.75;1.50;;;-0.70;96.70;;;-0.97;63.77;97776.59;172584;28;1261;-79
2022/01/31 00:20:12;;;;;;;4.17;1.63;;;-0.70;96.70;;;-1.12;64.31;97762.66;172464;28;1251;-79
2022/01/31 00:20:18;;;;;;;4.03;1.40;;;-0.70;96.70;;;-0.93;64.14;97797.38;173932;28;1361;-79
2022/01/31 00:20:24;;;;;;;4.43;1.47;;;-0.70;96.70;;;-0.97;64.30;97780.06;172638;28;966;-79
2022/01/31 00:20:31;;;;;;;4.73;1.40;;;-0.70;96.70;;;-0.97;63.83;97780.06;173853;28;1365;-79
2022/01/31 00:20:37;;;;;;;4.25;1.27;;;-0.70;96.70;;;-0.95;63.90;97790.53;171875;28;1609;-79
2022/01/31 00:20:43;;;;;;;4.33;1.17;;;-0.70;96.70;;;-1.21;63.97;97751.91;173153;28;1465;-78
2022/01/31 00:20:49;;;;;;;3.92;1.30;;;-0.70;96.70;;;-1.14;64.08;97761.09;173436;28;1429;-78
2022/01/31 00:20:55;;;;;;;3.03;1.10;;;-0.70;96.70;;;-0.94;64.17;97795.72;172640;28;876;-78
2022/01/31 00:21:01;;;;;;;3.53;1.20;;;-0.70;96.70;;;-0.97;63.94;97798.56;172607;28;1505;-79
2022/01/31 00:21:08;;;;;;;3.55;1.30;;;-0.70;96.70;;;-1.19;63.99;97760.59;173210;28;1464;-79
2022/01/31 00:21:14;;;;;;;3.30;1.17;;;-0.80;96.70;;;-0.96;64.05;97799.41;173206;28;1386;-79
2022/01/31 00:21:20;;;;;;;4.25;1.10;;;-0.70;96.70;;;-0.99;64.52;97792.56;173069;28;1592;-79
2022/01/31 00:21:26;;;;;;;4.38;1.20;;;-0.80;96.70;;;-0.94;64.23;97802.81;171854;28;1224;-79
2022/01/31 00:21:33;;;;;;;4.40;1.20;;;-0.80;96.60;;;-1.09;64.12;97774.84;172504;28;1699;-79
2022/01/31 00:21:39;;;;;;;5.10;1.20;;;-0.80;96.60;;;-1.05;64.15;97787.72;173262;28;1252;-78
2022/01/31 00:21:45;;;;;;;5.65;1.17;;;-0.80;96.60;;;-1.02;63.98;97794.56;173204;28;1304;-79
2022/01/31 00:21:51;;;;;;;5.65;1.30;;;-0.80;96.60;;;-1.09;64.12;97783.56;173350;28;876;-78
2022/01/31 00:21:58;;;;;;;6.37;1.40;;;-0.80;96.60;;;-1.37;64.18;97734.50;173310;28;927;-79
2022/01/31 00:22:08;;;;;;;6.02;1.46;;;-0.80;96.60;;;-1.05;64.41;97789.50;173973;28;879;-79
2022/01/31 00:22:14;;;;;;;6.45;1.50;;;-0.80;96.70;;;-1.13;64.16;97771.53;173142;28;1398;-78
2022/01/31 00:22:20;;;;;;;5.57;1.50;;;-0.80;96.70;;;-0.97;64.19;97795.94;172686;28;950;-77
2022/01/31 00:22:26;;;;;;;6.30;1.63;;;-0.80;96.70;;;-1.19;64.49;97758.75;171947;28;1065;-79
2022/01/31 00:22:32;;;;;;;6.60;1.67;;;-0.80;96.70;;;-1.07;64.23;97784.31;172548;28;1279;-79
2022/01/31 00:22:38;;;;;;;7.05;1.77;;;-0.80;96.70;;;-1.00;63.94;97798.78;173213;28;1214;-79
2022/01/31 00:22:44;;;;;;;6.47;1.90;;;-0.80;96.60;;;-1.12;63.95;97775.88;173275;28;1308;-79
2022/01/31 00:22:50;;;;;;;6.38;1.77;;;-0.80;96.60;;;-1.08;63.75;97779.13;173240;28;1227;-79
2022/01/31 00:22:56;;;;;;;4.95;1.63;;;-0.80;96.60;;;-1.07;63.96;97786.13;173486;28;1392;-78
2022/01/31 00:23:02;;;;;;;4.38;1.40;;;-0.80;96.60;;;-1.10;64.04;97776.63;171910;28;1311;-78
2022/01/31 00:23:08;;;;;;;3.30;1.20;;;-0.80;96.60;;;-1.07;64.07;97778.19;171877;28;1181;-79
2022/01/31 00:23:14;;;;;;;3.05;1.05;;;-0.80;96.60;;;-1.08;63.81;97784.41;173265;28;1243;-79
2022/01/31 00:23:20;;;;;;;3.08;1.02;;;-0.80;96.60;;;-1.04;63.95;97791.19;173232;28;1477;-79
2022/01/31 00:23:27;;;;;;;3.80;1.00;;;-0.80;96.60;;;-1.15;63.93;97767.34;171893;28;1503;-79
2022/01/31 00:23:33;;;;;;;4.03;1.00;;;-0.80;96.60;;;-1.11;63.80;97771.44;171988;28;800;-79
2022/01/31 00:23:39;;;;;;;4.05;1.10;;;-0.80;96.60;;;-1.05;64.21;97786.84;173219;28;1448;-79
2022/01/31 00:23:45;;;;;;;3.58;1.10;;;-0.80;96.60;;;-1.02;64.10;97787.47;172441;28;1411;-78
2022/01/31 00:23:51;;;;;;;3.47;1.05;;;-0.80;96.60;;;-1.15;64.33;97770.81;171886;28;1201;-79
2022/01/31 00:23:57;;;;;;;4.70;1.10;;;-0.80;96.60;;;-1.15;63.86;97764.69;172540;28;1358;-79
2022/01/31 00:24:03;;;;;;;5.97;1.17;;;-0.80;96.60;;;-1.15;63.79;97762.91;171940;28;863;-79
2022/01/31 00:24:10;;;;;;;6.20;1.20;;;-0.80;96.60;;;-1.11;64.11;97766.16;171972;28;903;-79
2022/01/31 00:24:16;;;;;;;6.83;1.27;;;-0.80;96.60;;;-1.05;64.34;97784.22;171871;28;1427;-78
2022/01/31 00:24:22;;;;;;;6.63;1.30;;;-0.80;96.60;;;-1.11;64.37;97767.00;171851;28;1295;-79
2022/01/31 00:24:28;;;;;;;5.65;1.30;;;-0.80;96.60;;;-1.05;64.24;97776.28;172006;28;875;-79
2022/01/31 00:24:35;;;;;;;5.73;1.47;;;-0.80;96.70;;;-1.07;64.63;97783.47;171893;28;1339;-79
2022/01/31 00:24:41;;;;;;;5.32;1.40;;;-0.90;96.60;;;-1.00;64.20;97787.38;174058;28;856;-79
2022/01/31 00:24:49;;;;;;;5.13;1.35;;;-0.80;96.70;;;-1.07;64.42;97775.53;173269;28;907;-77
2022/01/31 00:24:55;;;;;;;5.98;1.30;;;-0.80;96.70;;;-1.24;64.11;97760.06;172633;28;963;-78
2022/01/31 00:25:00;;;;;;;4.93;1.20;;;-0.80;96.70;;;-1.26;63.79;97746.94;172552;28;1557;-79
2022/01/31 00:25:07;;;;;;;4.88;1.13;;;-0.90;96.70;;;-1.04;63.71;97786.75;173067;28;1411;-79
2022/01/31 00:25:14;;;;;;;4.67;1.17;;;-0.80;96.70;;;-1.06;63.55;97779.88;171906;28;1288;-79
2022/01/31 00:25:20;;;;;;;5.53;1.40;;;-0.80;96.70;;;-1.24;64.05;97752.94;172619;28;1259;-79
2022/01/31 00:25:26;;;;;;;4.00;1.42;;;-0.90;96.70;;;-1.03;64.07;97785.78;171980;28;927;-79
2022/01/31 00:25:31;;;;;;;4.30;1.50;;;-0.90;96.70;;;-1.06;64.42;97780.72;172102;28;1563;-78
2022/01/31 00:25:37;;;;;;;5.40;1.60;;;-0.80;96.70;;;-1.08;64.28;97782.63;172582;28;1517;-79
2022/01/31 00:25:43;;;;;;;5.25;1.60;;;-0.90;96.60;;;-1.19;64.22;97763.22;171832;28;1303;-79
2022/01/31 00:25:49;;;;;;;4.67;1.43;;;-0.90;96.60;;;-1.09;64.07;97774.84;172628;28;1314;-79
2022/01/31 00:25:55;;;;;;;4.80;1.40;;;-0.90;96.70;;;-1.20;64.24;97757.09;172691;28;918;-78
2022/01/31 00:26:01;;;;;;;4.68;1.35;;;-0.90;96.70;;;-1.15;64.53;97756.75;171855;28;1285;-78
2022/01/31 00:26:07;;;;;;;2.78;1.23;;;-0.80;96.70;;;-1.06;64.53;97780.72;172529;28;1445;-79
2022/01/31 00:26:13;;;;;;;2.80;1.17;;;-0.90;96.70;;;-1.04;64.46;97781.47;172584;28;1270;-79
2022/01/31 00:26:19;;;;;;;2.53;1.15;;;-0.90;96.70;;;-1.02;64.27;97784.84;172530;28;1414;-79
2022/01/31 00:26:25;;;;;;;2.88;1.13;;;-0.80;96.80;;;-0.96;64.63;97794.97;174179;28;1310;-77
2022/01/31 00:26:31;;;;;;;2.60;1.10;;;-0.80;96.80;;;-1.01;64.43;97781.25;173730;28;1305;-79
2022/01/31 00:26:37;;;;;;;2.75;1.10;;;-0.90;96.80;;;-0.97;64.71;97776.59;173862;28;1432;-79
2022/01/31 00:26:43;;;;;;;2.97;1.13;;;-0.80;96.90;;;-0.97;64.50;97784.50;174690;28;1041;-79
2022/01/31 00:26:49;;;;;;;3.37;1.20;;;-0.80;96.90;;;-1.07;64.85;97770.25;173931;28;1286;-79
2022/01/31 00:26:55;;;;;;;3.22;1.20;;;-0.80;96.90;;;-1.06;64.50;97772.81;171899;28;1328;-78
2022/01/31 00:27:03;;;;;;;3.53;1.27;;;-0.80;96.90;;;-1.00;64.61;97782.09;173942;28;1224;-79
2022/01/31 00:27:09;;;;;;;5.12;1.40;;;-0.80;96.90;;;-1.03;64.39;97777.84;175238;28;1395;-79
2022/01/31 00:27:15;;;;;;;5.05;1.38;;;-0.80;97.00;;;-1.00;64.57;97782.94;174542;28;1542;-79
2022/01/31 00:27:21;;;;;;;4.13;1.30;;;-0.80;97.00;;;-1.04;64.47;97778.84;173193;28;1199;-79
2022/01/31 00:27:27;;;;;;;3.90;1.30;;;-0.80;97.00;;;-0.97;64.61;97789.78;173197;28;1197;-79
2022/01/31 00:27:33;;;;;;;2.97;1.17;;;-0.80;97.00;;;-1.05;64.61;97773.66;173860;28;1304;-79
2022/01/31 00:27:39;;;;;;;1.92;1.10;;;-0.80;97.00;;;-1.00;64.46;97785.59;172643;28;907;-79
2022/01/31 00:27:47;;;;;;;3.00;1.13;;;-0.80;97.00;;;-1.06;64.47;97772.81;172578;28;1628;-78
2022/01/31 00:27:53;;;;;;;3.13;1.20;;;-0.80;96.90;;;-1.09;64.51;97773.00;173038;28;1519;-79
2022/01/31 00:27:59;;;;;;;3.17;1.17;;;-0.80;96.90;;;-1.03;64.11;97785.78;172705;28;924;-78
2022/01/31 00:28:05;;;;;;;3.50;1.20;;;-0.80;96.90;;;-1.07;64.54;97776.41;173234;28;1378;-78
2022/01/31 00:28:11;;;;;;;3.58;1.13;;;-0.80;96.90;;;-1.02;63.98;97784.84;174586;28;1350;-79
2022/01/31 00:28:17;;;;;;;3.88;1.10;;;-0.80;96.80;;;-1.03;64.18;97785.78;173368;28;863;-78
2022/01/31 00:28:23;;;;;;;4.95;1.10;;;-0.80;96.80;;;-1.02;63.98;97789.28;173270;28;1280;-79
2022/01/31 00:28:29;;;;;;;5.03;1.10;;;-0.80;96.80;;;-1.12;64.39;97772.38;175309;28;1195;-79
2022/01/31 00:28:35;;;;;;;5.47;1.17;;;-0.80;96.80;;;-1.03;64.43;97787.56;173158;28;1231;-79
2022/01/31 00:28:40;;;;;;;6.18;1.20;;;-0.90;96.80;;;-1.02;64.25;97790.13;172525;28;1240;-79
2022/01/31 00:28:46;;;;;;;4.95;1.20;;;-0.90;96.80;;;-1.07;64.09;97779.03;173256;28;1363;-78
2022/01/31 00:28:52;;;;;;;5.65;1.20;;;-0.80;96.80;;;-0.98;64.00;97798.66;172501;28;1367;-78
2022/01/31 00:28:58;;;;;;;5.87;1.10;;;-0.80;96.80;;;-1.02;64.08;97786.63;172544;28;1294;-79
2022/01/31 00:29:04;;;;;;;5.55;1.10;;;-0.90;96.70;;;-1.08;64.33;97773.84;173203;28;1275;-79
2022/01/31 00:29:10;;;;;;;5.07;1.10;;;-0.80;96.80;;;-1.03;64.39;97783.16;172676;28;1938;-78
2022/01/31 00:29:17;;;;;;;5.45;1.20;;;-0.80;96.80;;;-1.02;64.35;97784.84;173219;28;1446;-79
2022/01/31 00:29:23;;;;;;;3.88;1.26;;;-0.80;96.80;;;-0.93;64.19;97793.91;173143;28;1360;-79
2022/01/31 00:29:29;;;;;;;4.10;1.45;;;-0.80;96.80;;;-1.05;64.58;97771.00;173199;28;1369;-79
2022/01/31 00:29:36;;;;;;;3.63;1.42;;;-0.80;96.90;;;-1.01;64.12;97777.75;173252;28;1569;-79
2022/01/31 00:29:41;;;;;;;3.58;1.44;;;-0.80;96.80;;;-0.99;64.40;97784.63;172543;28;1626;-79
2022/01/31 00:29:47;;;;;;;3.35;1.40;;;-0.80;96.80;;;-1.08;64.26;97766.78;172581;28;1219;-79
2022/01/31 00:29:53;;;;;;;3.10;1.38;;;-0.80;96.90;;;-0.99;64.20;97784.63;173229;28;1371;-79
2022/01/31 00:29:59;;;;;;;2.90;1.20;;;-0.80;96.90;;;-0.95;64.55;97794.03;173950;28;1210;-79